createdAt,value
2019-02-12T00:02:00.715Z,19.33
2019-02-12T00:04:32.571Z,19.13
2019-02-12T00:07:04.420Z,15.53
2019-02-12T00:09:36.143Z,19.50
2019-02-12T00:12:07.881Z,20.83
2019-02-12T00:14:39.690Z,18.73
2019-02-12T00:17:11.494Z,17.20
2019-02-12T00:19:43.231Z,16.03
2019-02-12T00:22:15.008Z,21.50
2019-02-12T00:24:46.828Z,16.90
2019-02-12T00:27:18.693Z,21.90
2019-02-12T00:29:50.443Z,16.13
2019-02-12T00:32:22.238Z,15.20
2019-02-12T00:34:54.048Z,17.47
2019-02-12T00:37:25.891Z,15.33
2019-02-12T00:39:57.731Z,17.07
2019-02-12T00:42:29.512Z,17.40
2019-02-12T00:45:01.370Z,14.30
2019-02-12T00:47:33.250Z,18.30
2019-02-12T00:50:05.327Z,19.67
2019-02-12T00:52:37.182Z,16.37
2019-02-12T00:55:09.108Z,17.30
2019-02-12T00:57:40.917Z,16.70
2019-02-12T01:00:13.584Z,16.53
2019-02-12T01:02:45.324Z,16.60
2019-02-12T01:05:17.113Z,16.83
2019-02-12T01:07:48.912Z,13.87
2019-02-12T01:10:20.715Z,12.40
2019-02-12T01:12:52.504Z,13.43
2019-02-12T01:15:24.338Z,19.10
2019-02-12T01:17:56.116Z,22.27
2019-02-12T01:20:27.964Z,19.17
2019-02-12T01:22:59.809Z,14.63
2019-02-12T01:25:31.629Z,19.17
2019-02-12T01:28:03.458Z,16.70
2019-02-12T01:30:35.343Z,17.43
2019-02-12T01:33:07.239Z,15.87
2019-02-12T01:35:39.057Z,13.73
2019-02-12T01:38:10.870Z,20.53
2019-02-12T01:40:42.672Z,13.20
2019-02-12T01:43:14.460Z,16.07
2019-02-12T01:45:46.251Z,20.93
2019-02-12T01:48:18.054Z,16.17
2019-02-12T01:50:49.888Z,14.83
2019-02-12T01:53:21.727Z,35.20
2019-02-12T01:55:53.450Z,16.80
2019-02-12T01:58:25.239Z,12.97
2019-02-12T02:00:57.044Z,12.10
2019-02-12T02:03:28.788Z,20.07
2019-02-12T02:06:00.567Z,12.10
2019-02-12T02:08:32.372Z,21.27
2019-02-12T02:11:04.091Z,16.60
2019-02-12T02:13:35.902Z,22.87
2019-02-12T02:16:07.679Z,13.83
2019-02-12T02:18:39.523Z,13.80
2019-02-12T02:21:12.400Z,14.03
2019-02-12T02:23:44.202Z,22.87
2019-02-12T02:26:16.027Z,16.20
2019-02-12T02:28:47.836Z,24.53
2019-02-12T02:31:19.600Z,17.37
2019-02-12T02:33:51.408Z,14.80
2019-02-12T02:36:23.220Z,17.17
2019-02-12T02:38:55.062Z,14.73
2019-02-12T02:41:26.884Z,14.50
2019-02-12T02:43:58.664Z,14.80
2019-02-12T02:46:30.456Z,16.50
2019-02-12T02:49:02.274Z,16.30
2019-02-12T02:51:34.152Z,16.20
2019-02-12T02:54:05.954Z,14.83
2019-02-12T02:56:37.830Z,16.80
2019-02-12T02:59:09.654Z,11.57
2019-02-12T03:01:41.377Z,16.93
2019-02-12T03:04:13.179Z,17.33
2019-02-12T03:06:45.023Z,10.70
2019-02-12T03:09:16.749Z,17.07
2019-02-12T03:11:48.567Z,11.97
2019-02-12T03:14:20.389Z,13.23
2019-02-12T03:16:52.213Z,8.93
2019-02-12T03:19:23.926Z,15.13
2019-02-12T03:22:03.420Z,14.77
2019-02-12T03:24:29.168Z,12.23
2019-02-12T03:27:00.835Z,13.73
2019-02-12T03:29:32.531Z,11.77
2019-02-12T03:32:04.289Z,16.90
2019-02-12T03:34:36.039Z,14.80
2019-02-12T03:37:08.757Z,17.23
2019-02-12T03:39:40.511Z,12.97
2019-02-12T03:42:12.209Z,9.57
2019-02-12T03:44:45.516Z,13.73
2019-02-12T03:47:17.208Z,12.67
2019-02-12T03:49:48.903Z,13.77
2019-02-12T03:52:20.887Z,12.53
2019-02-12T03:54:52.552Z,17.63
2019-02-12T03:57:24.301Z,17.33
2019-02-12T03:59:56.001Z,12.80
2019-02-12T04:02:27.670Z,16.40
2019-02-12T04:04:59.430Z,14.70
2019-02-12T04:07:31.098Z,13.87
2019-02-12T04:10:02.789Z,16.73
2019-02-12T04:12:34.546Z,10.63
2019-02-12T04:15:06.203Z,13.50
2019-02-12T04:17:37.964Z,16.47
2019-02-12T04:20:09.636Z,9.93
2019-02-12T04:22:41.353Z,15.43
2019-02-12T04:25:13.087Z,8.83
2019-02-12T04:27:44.851Z,15.60
2019-02-12T04:30:16.512Z,10.80
2019-02-12T04:32:48.156Z,10.00
2019-02-12T04:35:19.812Z,12.63
2019-02-12T04:37:51.489Z,12.10
2019-02-12T04:40:23.171Z,16.23
2019-02-12T04:42:54.875Z,14.37
2019-02-12T04:45:26.721Z,19.20
2019-02-12T04:47:58.495Z,14.53
2019-02-12T04:50:30.198Z,7.50
2019-02-12T04:53:01.884Z,12.70
2019-02-12T04:55:33.560Z,15.17
2019-02-12T04:58:05.226Z,17.47
2019-02-12T05:00:36.924Z,17.53
2019-02-12T05:03:08.607Z,9.97
2019-02-12T05:05:40.318Z,11.83
2019-02-12T05:08:12.048Z,14.10
2019-02-12T05:10:51.855Z,17.03
2019-02-12T05:13:23.547Z,15.93
2019-02-12T05:15:55.191Z,17.33
2019-02-12T05:18:26.890Z,12.47
2019-02-12T05:20:58.554Z,13.20
2019-02-12T05:23:30.209Z,12.50
2019-02-12T05:26:01.867Z,13.90
2019-02-12T05:28:33.522Z,16.10
2019-02-12T05:31:05.203Z,15.03
2019-02-12T05:33:36.850Z,17.30
2019-02-12T05:36:08.524Z,16.00
2019-02-12T05:38:40.346Z,24.20
2019-02-12T05:41:12.027Z,22.37
2019-02-12T05:43:43.694Z,21.63
2019-02-12T05:46:15.363Z,24.17
2019-02-12T05:48:47.069Z,22.07
2019-02-12T05:51:18.858Z,24.60
2019-02-12T05:53:50.521Z,23.27
2019-02-12T05:56:22.275Z,22.30
2019-02-12T05:58:53.961Z,28.37
2019-02-12T06:01:25.737Z,21.73
2019-02-12T06:03:57.426Z,21.73
2019-02-12T06:06:29.166Z,25.00
2019-02-12T06:09:00.830Z,21.70
2019-02-12T06:11:32.509Z,26.07
2019-02-12T06:14:04.201Z,19.20
2019-02-12T06:16:35.902Z,24.33
2019-02-12T06:19:07.553Z,20.40
2019-02-12T06:21:39.194Z,19.70
2019-02-12T06:24:10.855Z,20.87
2019-02-12T06:26:42.548Z,23.20
2019-02-12T06:29:14.183Z,20.03
2019-02-12T06:31:45.828Z,18.03
2019-02-12T06:34:17.514Z,24.50
2019-02-12T06:36:49.184Z,24.77
2019-02-12T06:39:20.927Z,18.77
2019-02-12T06:41:52.608Z,20.00
2019-02-12T06:44:24.271Z,24.63
2019-02-12T06:46:56.075Z,20.57
2019-02-12T06:49:27.830Z,29.77
2019-02-12T06:52:00.604Z,26.37
2019-02-12T06:54:33.139Z,20.03
2019-02-12T06:57:04.864Z,17.80
2019-02-12T06:59:36.581Z,20.40
2019-02-12T07:02:44.181Z,16.10
2019-02-12T07:05:19.958Z,20.23
2019-02-12T07:08:43.595Z,22.43
2019-02-12T07:11:53.993Z,19.37
2019-02-12T07:15:15.789Z,16.37
2019-02-12T07:18:05.534Z,21.43
2019-02-12T07:21:18.277Z,16.70
2019-02-12T07:24:25.937Z,22.97
2019-02-12T07:27:35.247Z,19.30
2019-02-12T07:30:46.475Z,23.30
2019-02-12T07:33:57.226Z,18.70
2019-02-12T07:37:07.393Z,24.53
2019-02-12T07:39:55.652Z,26.67
2019-02-12T07:42:42.753Z,19.57
2019-02-12T07:45:58.884Z,19.97
2019-02-12T07:48:53.178Z,23.57
2019-02-12T07:52:11.068Z,18.67
2019-02-12T07:55:10.454Z,21.77
2019-02-12T07:58:16.761Z,28.20
2019-02-12T08:01:05.738Z,24.03
2019-02-12T08:03:49.982Z,21.07
2019-02-12T08:06:47.531Z,21.07
2019-02-12T08:09:41.341Z,22.77
2019-02-12T08:13:00.372Z,22.70
2019-02-12T08:15:54.444Z,18.90
2019-02-12T08:18:37.830Z,21.53
2019-02-12T08:22:05.072Z,18.17
2019-02-12T08:25:22.948Z,20.10
2019-02-12T08:28:56.262Z,19.97
2019-02-12T08:32:01.407Z,20.63
2019-02-12T08:35:28.659Z,16.23
2019-02-12T08:38:53.108Z,22.93
2019-02-12T08:42:04.758Z,18.77
2019-02-12T08:45:02.713Z,17.73
2019-02-12T08:48:11.950Z,17.40
2019-02-12T08:51:34.485Z,14.13
2019-02-12T08:54:39.541Z,12.53
2019-02-12T08:58:06.047Z,12.20
2019-02-12T09:01:21.656Z,18.77
2019-02-12T09:04:26.251Z,13.77
2019-02-12T09:07:10.935Z,11.53
2019-02-12T09:10:23.866Z,16.03
2019-02-12T09:13:06.115Z,16.47
2019-02-12T09:16:13.951Z,13.80
2019-02-12T09:19:29.920Z,17.37
2019-02-12T09:22:53.839Z,13.10
2019-02-12T09:26:09.826Z,13.23
2019-02-12T09:29:13.010Z,13.63
2019-02-12T09:32:31.423Z,13.03
2019-02-12T09:35:44.668Z,13.53
2019-02-12T09:38:45.520Z,12.37
2019-02-12T09:41:37.842Z,15.87
2019-02-12T09:44:49.726Z,14.07
2019-02-12T09:47:58.819Z,14.70
2019-02-12T09:51:15.020Z,12.97
2019-02-12T09:54:08.577Z,13.13
2019-02-12T09:57:03.505Z,17.07
2019-02-12T09:59:48.059Z,14.13
2019-02-12T10:02:54.649Z,11.93
2019-02-12T10:06:08.596Z,15.17
2019-02-12T10:09:27.480Z,10.57
2019-02-12T10:12:36.123Z,14.83
2019-02-12T10:15:32.065Z,15.50
2019-02-12T10:18:13.846Z,13.97
2019-02-12T10:21:25.734Z,14.87
2019-02-12T10:24:38.425Z,12.53
2019-02-12T10:27:48.709Z,12.80
2019-02-12T10:31:13.737Z,17.00
2019-02-12T10:33:48.037Z,10.33
2019-02-12T10:36:19.788Z,8.10
2019-02-12T10:38:51.455Z,10.33
2019-02-12T10:41:23.133Z,9.00
2019-02-12T10:44:04.654Z,13.07
2019-02-12T10:46:36.495Z,10.40
2019-02-12T10:49:23.828Z,17.23
2019-02-12T10:51:55.487Z,11.77
2019-02-12T10:54:28.153Z,10.53
2019-02-12T10:57:00.167Z,9.50
2019-02-12T10:59:32.030Z,10.20
2019-02-12T11:02:03.708Z,11.57
2019-02-12T11:04:35.488Z,9.30
2019-02-12T11:07:07.287Z,15.20
2019-02-12T11:09:40.546Z,11.03
2019-02-12T11:12:13.148Z,12.43
2019-02-12T11:14:45.060Z,10.87
2019-02-12T11:17:16.851Z,9.67
2019-02-12T11:19:48.536Z,8.87
2019-02-12T11:22:20.346Z,9.97
2019-02-12T11:24:52.220Z,13.07
2019-02-12T11:27:23.936Z,10.93
2019-02-12T11:29:55.968Z,12.83
2019-02-12T11:32:27.684Z,10.03
2019-02-12T11:35:05.198Z,9.37
2019-02-12T11:37:37.320Z,8.60
2019-02-12T11:40:09.678Z,12.37
2019-02-12T11:42:41.521Z,13.60
2019-02-12T11:45:13.485Z,11.57
2019-02-12T11:47:45.212Z,14.47
2019-02-12T11:50:16.950Z,8.30
2019-02-12T11:52:50.060Z,19.93
2019-02-12T11:55:21.868Z,10.33
2019-02-12T11:57:53.634Z,13.27
2019-02-12T12:00:29.105Z,12.43
2019-02-12T12:03:00.900Z,7.40
2019-02-12T12:05:32.779Z,10.00
2019-02-12T12:08:04.481Z,7.87
2019-02-12T12:10:36.150Z,11.50
2019-02-12T12:13:07.959Z,10.43
2019-02-12T12:15:40.936Z,9.20
2019-02-12T12:18:12.740Z,8.97
2019-02-12T12:20:44.960Z,7.93
2019-02-12T12:23:16.787Z,8.47
2019-02-12T12:25:54.173Z,10.27
2019-02-12T12:28:25.901Z,7.93
2019-02-12T12:30:57.655Z,6.57
2019-02-12T12:33:29.693Z,8.37
2019-02-12T12:36:01.557Z,6.97
2019-02-12T12:38:33.289Z,5.33
2019-02-12T12:41:05.070Z,11.37
2019-02-12T12:43:36.740Z,7.63
2019-02-12T12:46:08.491Z,8.53
2019-02-12T12:48:40.261Z,8.37
2019-02-12T12:51:11.938Z,8.47
2019-02-12T12:53:43.684Z,6.67
2019-02-12T12:56:15.421Z,6.50
2019-02-12T12:58:47.157Z,7.47
2019-02-12T13:01:18.980Z,6.53
2019-02-12T13:03:50.812Z,7.40
2019-02-12T13:06:22.583Z,7.20
2019-02-12T13:08:54.269Z,8.18
2019-02-12T13:11:26.702Z,6.10
2019-02-12T13:13:58.534Z,5.50
2019-02-12T13:16:30.292Z,7.43
2019-02-12T13:19:02.004Z,4.53
2019-02-12T13:21:33.708Z,6.13
2019-02-12T13:24:05.508Z,8.20
2019-02-12T13:26:37.348Z,4.70
2019-02-12T13:29:09.188Z,7.13
2019-02-12T13:31:41.508Z,5.13
2019-02-12T13:34:14.267Z,7.47
2019-02-12T13:36:47.429Z,4.70
2019-02-12T13:39:19.246Z,9.53
2019-02-12T13:41:50.953Z,9.77
2019-02-12T13:44:22.627Z,7.23
2019-02-12T13:46:54.314Z,4.93
2019-02-12T13:49:25.978Z,5.67
2019-02-12T13:51:57.845Z,7.70
2019-02-12T13:54:29.649Z,13.30
2019-02-12T13:57:01.469Z,8.13
2019-02-12T13:59:33.595Z,6.20
2019-02-12T14:02:05.533Z,7.17
2019-02-12T14:04:37.217Z,5.33
2019-02-12T14:07:09.335Z,6.23
2019-02-12T14:09:41.035Z,8.70
2019-02-12T14:12:12.847Z,4.47
2019-02-12T14:14:44.580Z,5.00
2019-02-12T14:17:16.324Z,6.03
2019-02-12T14:19:48.067Z,6.33
2019-02-12T14:22:19.813Z,7.97
2019-02-12T14:24:51.514Z,8.47
2019-02-12T14:27:23.209Z,5.87
2019-02-12T14:29:54.884Z,7.80
2019-02-12T14:32:26.657Z,9.43
2019-02-12T14:34:58.343Z,5.80
2019-02-12T14:37:30.142Z,5.53
2019-02-12T14:40:01.856Z,10.50
2019-02-12T14:42:33.628Z,6.57
2019-02-12T14:45:06.347Z,8.80
2019-02-12T14:47:38.085Z,7.73
2019-02-12T14:50:10.902Z,6.57
2019-02-12T14:52:42.676Z,10.33
2019-02-12T14:55:14.392Z,8.77
2019-02-12T14:57:46.086Z,5.33
2019-02-12T15:00:17.824Z,6.73
2019-02-12T15:02:49.558Z,10.20
2019-02-12T15:05:21.328Z,6.90
2019-02-12T15:07:53.010Z,8.50
2019-02-12T15:10:24.700Z,5.10
2019-02-12T15:12:56.355Z,4.30
2019-02-12T15:15:28.034Z,7.17
2019-02-12T15:17:59.708Z,7.70
2019-02-12T15:20:31.385Z,4.87
2019-02-12T15:23:03.125Z,7.73
2019-02-12T15:25:41.785Z,10.03
2019-02-12T15:28:08.158Z,9.80
2019-02-12T15:30:39.844Z,5.87
2019-02-12T15:33:11.524Z,7.73
2019-02-12T15:35:43.293Z,7.83
2019-02-12T15:38:15.043Z,4.87
2019-02-12T15:40:46.813Z,5.43
2019-02-12T15:43:19.468Z,10.80
2019-02-12T15:45:51.139Z,8.27
2019-02-12T15:48:22.889Z,5.97
2019-02-12T15:50:54.628Z,12.47
2019-02-12T15:53:26.351Z,8.73
2019-02-12T15:55:58.128Z,6.10
2019-02-12T15:58:30.264Z,9.47
2019-02-12T16:01:03.950Z,9.90
2019-02-12T16:03:37.744Z,8.33
2019-02-12T16:06:08.865Z,10.77
2019-02-12T16:08:40.672Z,10.33
2019-02-12T16:11:12.428Z,10.90
2019-02-12T16:13:44.193Z,6.17
2019-02-12T16:16:15.993Z,7.43
2019-02-12T16:18:47.858Z,10.20
2019-02-12T16:21:19.613Z,10.57
2019-02-12T16:23:52.501Z,9.67
2019-02-12T16:26:24.191Z,8.10
2019-02-12T16:28:55.869Z,8.07
2019-02-12T16:31:27.571Z,9.57
2019-02-12T16:33:59.267Z,7.57
2019-02-12T16:36:30.975Z,9.37
2019-02-12T16:39:02.941Z,10.77
2019-02-12T16:41:34.737Z,5.33
2019-02-12T16:44:06.466Z,9.27
2019-02-12T16:46:38.282Z,11.27
2019-02-12T16:49:09.980Z,9.57
2019-02-12T16:51:41.765Z,9.97
2019-02-12T16:54:13.603Z,10.97
2019-02-12T16:56:45.408Z,8.87
2019-02-12T16:59:17.480Z,9.20
2019-02-12T17:01:49.127Z,9.97
2019-02-12T17:04:20.862Z,6.17
2019-02-12T17:06:52.532Z,10.00
2019-02-12T17:09:24.224Z,8.30
2019-02-12T17:11:55.890Z,8.07
2019-02-12T17:14:27.576Z,6.93
2019-02-12T17:16:59.334Z,10.53
2019-02-12T17:19:31.006Z,7.87
2019-02-12T17:22:02.741Z,10.30
2019-02-12T17:24:34.567Z,7.57
2019-02-12T17:27:06.421Z,11.10
2019-02-12T17:29:38.140Z,13.30
2019-02-12T17:32:09.898Z,11.53
2019-02-12T17:34:41.637Z,7.40
2019-02-12T17:37:13.337Z,11.70
2019-02-12T17:39:45.072Z,9.30
2019-02-12T17:42:16.760Z,11.13
2019-02-12T17:44:48.417Z,28.80
2019-02-12T17:47:20.240Z,11.07
2019-02-12T17:49:51.913Z,11.07
2019-02-12T17:52:23.639Z,13.03
2019-02-12T17:54:55.431Z,23.03
2019-02-12T17:57:27.223Z,15.00
2019-02-12T17:59:59.023Z,22.57
2019-02-12T18:02:30.891Z,15.40
2019-02-12T18:05:02.722Z,11.37
2019-02-12T18:07:34.788Z,11.27
2019-02-12T18:10:06.578Z,10.37
2019-02-12T18:12:38.352Z,9.80
2019-02-12T18:15:10.605Z,12.13
2019-02-12T18:17:42.369Z,7.87
2019-02-12T18:20:14.722Z,9.70
2019-02-12T18:22:46.391Z,22.70
2019-02-12T18:25:18.189Z,10.70
2019-02-12T18:27:49.880Z,9.23
2019-02-12T18:30:21.675Z,8.47
2019-02-12T18:32:53.741Z,9.33
2019-02-12T18:35:25.536Z,10.00
2019-02-12T18:37:57.293Z,10.50
2019-02-12T18:40:29.034Z,11.83
2019-02-12T18:43:00.765Z,13.23
2019-02-12T18:45:32.541Z,12.53
2019-02-12T18:48:04.543Z,8.47
2019-02-12T18:50:36.255Z,11.50
2019-02-12T18:53:08.317Z,15.27
2019-02-12T18:55:40.008Z,10.80
2019-02-12T18:58:12.073Z,8.07
2019-02-12T19:00:43.752Z,10.47
2019-02-12T19:03:15.527Z,9.47
2019-02-12T19:05:47.262Z,9.40
2019-02-12T19:08:18.950Z,7.67
2019-02-12T19:10:50.626Z,8.03
2019-02-12T19:13:22.297Z,8.60
2019-02-12T19:15:54.035Z,14.40
2019-02-12T19:18:27.287Z,10.97
2019-02-12T19:20:59.054Z,8.90
2019-02-12T19:23:30.751Z,11.13
2019-02-12T19:26:02.483Z,12.30
2019-02-12T19:28:34.342Z,10.07
2019-02-12T19:31:08.917Z,9.30
2019-02-12T19:33:40.704Z,9.43
2019-02-12T19:36:12.483Z,13.90
2019-02-12T19:38:44.259Z,8.67
2019-02-12T19:41:15.959Z,11.40
2019-02-12T19:43:47.687Z,15.73
2019-02-12T19:46:19.384Z,10.07
2019-02-12T19:48:51.162Z,8.80
2019-02-12T19:51:25.176Z,11.43
2019-02-12T19:53:57.013Z,10.07
2019-02-12T19:56:28.766Z,11.87
2019-02-12T19:59:00.485Z,12.07
2019-02-12T20:01:32.190Z,12.30
2019-02-12T20:04:03.851Z,13.23
2019-02-12T20:06:35.581Z,9.60
2019-02-12T20:09:14.037Z,13.73
2019-02-12T20:11:45.745Z,9.63
2019-02-12T20:14:17.523Z,12.20
2019-02-12T20:16:49.346Z,8.90
2019-02-12T20:19:21.034Z,10.30
2019-02-12T20:21:52.802Z,10.43
2019-02-12T20:24:24.869Z,10.50
2019-02-12T20:26:56.626Z,11.70
2019-02-12T20:29:28.390Z,10.50
2019-02-12T20:32:00.121Z,13.10
2019-02-12T20:34:31.810Z,10.80
2019-02-12T20:37:03.521Z,9.83
2019-02-12T20:39:35.196Z,14.97
2019-02-12T20:42:06.896Z,10.13
2019-02-12T20:44:38.560Z,10.77
2019-02-12T20:47:10.320Z,16.77
2019-02-12T20:49:42.064Z,9.97
2019-02-12T20:52:13.760Z,12.30
2019-02-12T20:54:45.457Z,12.50
2019-02-12T20:57:17.160Z,14.27
2019-02-12T20:59:48.959Z,12.03
2019-02-12T21:02:20.808Z,13.27
2019-02-12T21:04:52.576Z,10.40
2019-02-12T21:07:24.278Z,10.77
2019-02-12T21:09:55.973Z,14.17
2019-02-12T21:12:27.633Z,17.10
2019-02-12T21:15:00.428Z,22.73
2019-02-12T21:17:32.291Z,11.83
2019-02-12T21:20:04.436Z,15.53
2019-02-12T21:22:36.108Z,13.67
2019-02-12T21:25:08.751Z,14.37
2019-02-12T21:27:40.454Z,11.60
2019-02-12T21:30:14.609Z,10.47
2019-02-12T21:32:46.313Z,13.27
2019-02-12T21:35:18.071Z,13.13
2019-02-12T21:37:49.724Z,16.50
2019-02-12T21:40:22.457Z,16.53
2019-02-12T21:42:54.217Z,14.40
2019-02-12T21:45:25.925Z,13.87
2019-02-12T21:47:57.607Z,11.83
2019-02-12T21:50:29.332Z,16.20
2019-02-12T21:53:00.997Z,15.23
2019-02-12T21:55:32.765Z,14.27
2019-02-12T21:58:04.483Z,16.27
2019-02-12T22:00:36.183Z,15.33
2019-02-12T22:03:07.848Z,15.73
2019-02-12T22:05:40.207Z,17.27
2019-02-12T22:08:11.944Z,15.70
2019-02-12T22:10:46.421Z,12.93
2019-02-12T22:13:17.053Z,15.97
2019-02-12T22:15:48.727Z,14.93
2019-02-12T22:18:20.400Z,15.67
2019-02-12T22:20:52.097Z,15.80
2019-02-12T22:23:23.847Z,16.23
2019-02-12T22:25:55.607Z,11.57
2019-02-12T22:28:27.371Z,14.50
2019-02-12T22:30:59.108Z,11.33
2019-02-12T22:33:30.788Z,14.67
2019-02-12T22:36:02.469Z,19.20
2019-02-12T22:38:34.194Z,12.73
2019-02-12T22:41:05.889Z,14.20
2019-02-12T22:43:37.719Z,13.20
2019-02-12T22:46:09.521Z,12.80
2019-02-12T22:48:41.294Z,15.97
2019-02-12T22:51:12.990Z,13.63
2019-02-12T22:53:44.673Z,12.27
2019-02-12T22:56:16.405Z,19.10
2019-02-12T22:58:48.094Z,13.03
2019-02-12T23:01:26.288Z,15.60
2019-02-12T23:03:58.036Z,14.87
2019-02-12T23:06:29.687Z,14.40
2019-02-12T23:09:01.454Z,14.20
2019-02-12T23:11:33.252Z,15.77
2019-02-12T23:14:04.962Z,14.53
2019-02-12T23:16:36.645Z,17.43
2019-02-12T23:19:08.331Z,13.97
2019-02-12T23:21:40.009Z,16.87
2019-02-12T23:24:11.668Z,19.00
2019-02-12T23:26:43.552Z,16.53
2019-02-12T23:29:15.284Z,16.97
2019-02-12T23:31:47.041Z,16.97
2019-02-12T23:34:18.711Z,15.33
2019-02-12T23:36:50.459Z,18.37
2019-02-12T23:39:22.162Z,15.40
2019-02-12T23:41:53.818Z,21.53
2019-02-12T23:44:25.511Z,14.43
2019-02-12T23:46:57.176Z,12.53
2019-02-12T23:49:28.956Z,13.90
2019-02-12T23:52:00.628Z,16.00
2019-02-12T23:54:32.275Z,12.53
2019-02-12T23:57:03.979Z,17.03
2019-02-12T23:59:35.662Z,17.23
